createdAt,value
2023-05-23T00:00:17.038Z,16.10
2023-05-23T00:02:43.767Z,15.95
2023-05-23T00:05:10.412Z,15.85
2023-05-23T00:07:36.927Z,16.73
2023-05-23T00:10:03.888Z,15.95
2023-05-23T00:12:30.416Z,19.08
2023-05-23T00:14:56.937Z,17.67
2023-05-23T00:17:24.879Z,19.00
2023-05-23T00:19:51.402Z,19.80
2023-05-23T00:22:18.061Z,20.88
2023-05-23T00:24:44.550Z,21.27
2023-05-23T00:27:11.042Z,22.92
2023-05-23T00:29:37.549Z,24.35
2023-05-23T00:32:04.394Z,23.58
2023-05-23T00:34:32.351Z,22.75
2023-05-23T00:36:58.909Z,25.58
2023-05-23T00:39:25.402Z,25.80
2023-05-23T00:41:53.119Z,27.15
2023-05-23T00:44:20.218Z,27.33
2023-05-23T00:46:50.522Z,28.77
2023-05-23T00:49:17.181Z,27.00
2023-05-23T00:51:45.150Z,31.40
2023-05-23T00:54:13.041Z,30.67
2023-05-23T00:56:39.754Z,33.08
2023-05-23T00:59:07.700Z,31.48
2023-05-23T01:01:34.554Z,32.50
2023-05-23T01:04:01.077Z,35.25
2023-05-23T01:06:27.710Z,38.00
2023-05-23T01:08:55.530Z,37.88
2023-05-23T01:11:30.238Z,40.90
2023-05-23T01:14:01.491Z,38.03
2023-05-23T01:16:42.871Z,39.08
2023-05-23T01:19:29.456Z,40.20
2023-05-23T01:22:03.684Z,39.25
2023-05-23T01:24:36.642Z,43.72
2023-05-23T01:27:09.189Z,40.35
2023-05-23T01:29:39.835Z,41.42
2023-05-23T01:32:10.472Z,42.53
2023-05-23T01:34:38.292Z,40.13
2023-05-23T01:37:08.721Z,41.65
2023-05-23T01:39:35.324Z,43.40
2023-05-23T01:42:02.217Z,43.17
2023-05-23T01:44:29.058Z,41.63
2023-05-23T01:46:57.422Z,40.00
2023-05-23T01:49:24.352Z,43.38
2023-05-23T01:51:51.043Z,45.83
2023-05-23T01:54:18.196Z,47.70
2023-05-23T01:56:45.284Z,49.03
2023-05-23T01:59:12.251Z,51.85
2023-05-23T02:01:39.000Z,49.30
2023-05-23T02:04:07.067Z,48.60
2023-05-23T02:06:33.615Z,49.72
2023-05-23T02:09:00.135Z,54.13
2023-05-23T02:11:26.775Z,52.30
2023-05-23T02:13:53.312Z,54.17
2023-05-23T02:16:19.847Z,54.03
2023-05-23T02:18:46.519Z,53.38
2023-05-23T02:21:14.570Z,53.27
2023-05-23T02:23:41.184Z,56.33
2023-05-23T02:26:07.675Z,52.43
2023-05-23T02:28:34.305Z,55.60
2023-05-23T02:31:00.989Z,56.63
2023-05-23T02:33:27.505Z,54.17
2023-05-23T02:35:54.408Z,53.40
2023-05-23T02:38:22.301Z,56.22
2023-05-23T02:40:48.969Z,54.88
2023-05-23T02:43:15.443Z,55.45
2023-05-23T02:45:42.204Z,57.47
2023-05-23T02:48:09.012Z,56.35
2023-05-23T02:50:35.646Z,57.03
2023-05-23T02:53:02.170Z,54.70
2023-05-23T02:55:30.328Z,60.70
2023-05-23T02:57:56.867Z,56.20
2023-05-23T03:00:23.371Z,57.30
2023-05-23T03:02:50.100Z,54.85
2023-05-23T03:05:17.010Z,58.53
2023-05-23T03:07:43.665Z,59.30
2023-05-23T03:10:10.802Z,57.47
2023-05-23T03:12:38.825Z,58.78
2023-05-23T03:15:06.593Z,56.00
2023-05-23T03:17:35.009Z,55.42
2023-05-23T03:20:01.709Z,55.53
2023-05-23T03:22:28.368Z,57.55
2023-05-23T03:24:55.248Z,56.30
2023-05-23T03:27:21.882Z,54.75
2023-05-23T03:29:49.960Z,56.37
2023-05-23T03:32:16.674Z,57.05
2023-05-23T03:34:43.462Z,59.58
2023-05-23T03:37:10.186Z,58.13
2023-05-23T03:39:39.403Z,58.47
2023-05-23T03:42:07.166Z,56.50
2023-05-23T03:44:33.856Z,55.70
2023-05-23T03:47:01.893Z,53.10
2023-05-23T03:49:28.573Z,55.08
2023-05-23T03:51:55.200Z,55.93
2023-05-23T03:54:21.818Z,56.17
2023-05-23T03:56:48.548Z,54.67
2023-05-23T03:59:15.229Z,54.25
2023-05-23T04:01:41.870Z,52.83
2023-05-23T04:04:10.137Z,53.13
2023-05-23T04:06:36.949Z,54.40
2023-05-23T04:09:03.630Z,52.47
2023-05-23T04:11:30.339Z,51.53
2023-05-23T04:13:56.976Z,54.22
2023-05-23T04:16:23.782Z,50.67
2023-05-23T04:18:50.654Z,52.83
2023-05-23T04:21:18.737Z,53.42
2023-05-23T04:23:45.443Z,50.83
2023-05-23T04:26:12.020Z,51.53
2023-05-23T04:28:38.521Z,48.70
2023-05-23T04:31:05.422Z,49.78
2023-05-23T04:35:58.879Z,50.38
2023-05-23T04:38:26.698Z,52.03
2023-05-23T04:40:53.756Z,51.78
2023-05-23T04:43:20.337Z,53.80
2023-05-23T04:45:47.583Z,50.60
2023-05-23T04:48:14.197Z,52.03
2023-05-23T04:50:40.719Z,53.27
2023-05-23T04:53:07.321Z,52.33
2023-05-23T04:55:35.427Z,53.00
2023-05-23T04:58:02.027Z,50.80
2023-05-23T05:00:28.530Z,55.28
2023-05-23T05:02:55.149Z,56.03
2023-05-23T05:05:21.708Z,54.20
2023-05-23T05:07:48.204Z,55.42
2023-05-23T05:10:15.039Z,58.28
2023-05-23T05:12:43.146Z,55.70
2023-05-23T05:15:10.890Z,59.20
2023-05-23T05:17:37.508Z,58.67
2023-05-23T05:20:04.552Z,59.73
2023-05-23T05:22:31.052Z,60.75
2023-05-23T05:24:57.535Z,61.88
2023-05-23T05:27:24.756Z,61.75
2023-05-23T05:29:54.025Z,59.08
2023-05-23T05:32:20.531Z,61.35
2023-05-23T05:34:49.372Z,61.43
2023-05-23T05:37:16.264Z,59.38
2023-05-23T05:39:42.769Z,59.70
2023-05-23T05:42:09.228Z,58.60
2023-05-23T05:44:35.788Z,61.30
2023-05-23T05:47:03.915Z,61.13
2023-05-23T05:49:30.513Z,60.85
2023-05-23T05:51:57.078Z,60.30
2023-05-23T05:54:23.571Z,59.70
2023-05-23T05:56:50.240Z,58.70
2023-05-23T05:59:16.768Z,58.93
2023-05-23T06:01:43.435Z,57.78
2023-05-23T06:04:11.558Z,58.57
2023-05-23T06:06:38.310Z,59.53
2023-05-23T06:09:04.873Z,59.92
2023-05-23T06:11:32.367Z,60.10
2023-05-23T06:13:59.002Z,52.63
2023-05-23T06:16:25.833Z,56.30
2023-05-23T06:18:52.418Z,54.57
2023-05-23T06:21:20.290Z,55.03
2023-05-23T06:23:46.830Z,52.17
2023-05-23T06:26:13.454Z,55.65
2023-05-23T06:28:40.054Z,55.77
2023-05-23T06:31:06.716Z,54.93
2023-05-23T06:33:33.251Z,54.77
2023-05-23T06:35:59.779Z,53.00
2023-05-23T06:38:31.836Z,55.88
2023-05-23T06:40:58.439Z,53.40
2023-05-23T06:43:24.978Z,49.60
2023-05-23T06:45:51.872Z,48.42
2023-05-23T06:48:18.395Z,49.40
2023-05-23T06:50:46.252Z,49.80
2023-05-23T06:53:12.910Z,48.90
2023-05-23T06:55:40.819Z,45.67
2023-05-23T06:58:07.372Z,46.78
2023-05-23T07:00:33.956Z,51.30
2023-05-23T07:03:00.599Z,46.92
2023-05-23T07:05:27.537Z,46.70
2023-05-23T07:07:54.261Z,47.72
2023-05-23T07:10:20.970Z,47.70
2023-05-23T07:12:48.819Z,43.73
2023-05-23T07:15:15.532Z,45.90
2023-05-23T07:17:42.266Z,45.58
2023-05-23T07:20:09.352Z,45.60
2023-05-23T07:22:35.916Z,45.53
2023-05-23T07:25:02.519Z,42.88
2023-05-23T07:27:29.040Z,39.87
2023-05-23T07:29:56.869Z,42.35
2023-05-23T07:32:23.371Z,42.05
2023-05-23T07:34:49.860Z,45.45
2023-05-23T07:37:16.421Z,44.92
2023-05-23T07:39:42.976Z,45.28
2023-05-23T07:42:09.431Z,46.25
2023-05-23T07:44:35.895Z,44.13
2023-05-23T07:47:04.161Z,42.72
2023-05-23T07:49:30.652Z,39.70
2023-05-23T07:51:58.318Z,41.03
2023-05-23T07:54:24.876Z,41.05
2023-05-23T07:56:52.611Z,39.50
2023-05-23T07:59:19.152Z,41.05
2023-05-23T08:01:45.677Z,41.88
2023-05-23T08:04:13.610Z,41.22
2023-05-23T08:06:43.373Z,39.92
2023-05-23T08:09:18.512Z,39.92
2023-05-23T08:11:45.010Z,40.47
2023-05-23T08:14:11.511Z,39.00
2023-05-23T08:16:38.335Z,39.90
2023-05-23T08:19:05.018Z,39.33
2023-05-23T08:21:32.897Z,41.08
2023-05-23T08:23:59.443Z,38.03
2023-05-23T08:26:25.964Z,37.70
2023-05-23T08:28:52.893Z,36.00
2023-05-23T08:31:19.540Z,33.92
2023-05-23T08:33:46.057Z,36.07
2023-05-23T08:36:12.617Z,35.70
2023-05-23T08:38:40.444Z,35.47
2023-05-23T08:41:13.668Z,33.38
2023-05-23T08:43:40.178Z,30.70
2023-05-23T08:46:06.755Z,32.47
2023-05-23T08:48:38.073Z,31.52
2023-05-23T08:51:04.760Z,31.58
2023-05-23T08:53:31.936Z,29.80
2023-05-23T08:56:00.545Z,29.17
2023-05-23T08:58:27.246Z,28.80
2023-05-23T09:00:54.077Z,30.07
2023-05-23T09:03:20.710Z,29.15
2023-05-23T09:05:48.145Z,28.83
2023-05-23T09:10:42.137Z,27.27
2023-05-23T09:13:10.202Z,29.02
2023-05-23T09:15:36.695Z,26.90
2023-05-23T09:18:03.375Z,28.23
2023-05-23T09:20:30.258Z,29.13
2023-05-23T09:22:56.815Z,27.30
2023-05-23T09:25:23.685Z,27.33
2023-05-23T09:27:52.532Z,26.77
2023-05-23T09:30:20.511Z,26.50
2023-05-23T09:32:58.768Z,25.33
2023-05-23T09:35:28.494Z,25.50
2023-05-23T09:37:55.086Z,25.80
2023-05-23T09:40:21.651Z,24.20
2023-05-23T09:42:48.619Z,23.70
2023-05-23T09:45:16.890Z,22.52
2023-05-23T09:47:50.887Z,22.90
2023-05-23T09:50:17.552Z,21.10
2023-05-23T09:52:44.090Z,20.37
2023-05-23T09:55:10.701Z,19.95
2023-05-23T09:57:41.405Z,19.83
2023-05-23T10:00:09.514Z,18.35
2023-05-23T10:02:56.876Z,18.10
2023-05-23T10:05:33.118Z,20.55
2023-05-23T10:08:01.388Z,20.02
2023-05-23T10:10:31.760Z,19.50
2023-05-23T10:12:59.659Z,18.58
2023-05-23T10:15:30.873Z,17.98
2023-05-23T10:18:03.671Z,17.23
2023-05-23T10:20:31.672Z,17.13
2023-05-23T10:22:59.769Z,18.00
2023-05-23T10:25:26.702Z,16.60
2023-05-23T10:27:55.264Z,15.18
2023-05-23T10:30:21.890Z,14.55
2023-05-23T10:32:49.297Z,15.97
2023-05-23T10:37:55.781Z,14.65
2023-05-23T10:40:31.817Z,14.32
2023-05-23T10:43:04.377Z,14.43
2023-05-23T10:45:39.536Z,14.00
2023-05-23T10:48:20.087Z,12.45
2023-05-23T10:51:02.261Z,12.63
2023-05-23T10:53:29.978Z,12.60
2023-05-23T10:55:57.067Z,13.15
2023-05-23T10:58:23.765Z,12.75
2023-05-23T11:00:54.812Z,10.82
2023-05-23T11:03:31.788Z,10.43
2023-05-23T11:05:59.944Z,12.00
2023-05-23T11:08:32.551Z,12.73
2023-05-23T11:11:10.128Z,12.00
2023-05-23T11:13:56.743Z,11.67
2023-05-23T11:16:27.646Z,9.95
2023-05-23T11:19:22.144Z,11.45
2023-05-23T11:21:53.330Z,11.90
2023-05-23T11:24:20.076Z,12.57
2023-05-23T11:26:53.996Z,10.27
2023-05-23T11:29:21.009Z,11.13
2023-05-23T11:31:47.626Z,12.20
2023-05-23T11:34:14.254Z,12.63
2023-05-23T11:36:41.507Z,12.82
2023-05-23T11:39:09.684Z,11.63
2023-05-23T11:41:36.270Z,12.73
2023-05-23T11:44:11.074Z,11.47
2023-05-23T11:46:37.723Z,10.85
2023-05-23T11:49:10.970Z,11.88
2023-05-23T11:51:37.600Z,10.75
2023-05-23T11:54:04.292Z,10.95
2023-05-23T11:56:32.245Z,11.00
2023-05-23T11:58:58.862Z,9.82
2023-05-23T12:01:29.195Z,8.57
2023-05-23T12:03:55.779Z,8.15
2023-05-23T12:06:22.954Z,9.45
2023-05-23T12:08:49.569Z,8.82
2023-05-23T12:11:16.230Z,10.00
2023-05-23T12:13:44.253Z,8.88
2023-05-23T12:16:13.176Z,9.38
2023-05-23T12:18:40.086Z,9.20
2023-05-23T12:21:07.116Z,9.70
2023-05-23T12:23:35.203Z,9.65
2023-05-23T12:26:05.279Z,8.63
2023-05-23T12:28:36.495Z,7.97
2023-05-23T12:31:13.726Z,7.78
2023-05-23T12:33:40.984Z,9.13
2023-05-23T12:36:07.691Z,8.10
2023-05-23T12:38:34.366Z,7.15
2023-05-23T12:41:11.586Z,8.32
2023-05-23T12:43:38.981Z,7.50
2023-05-23T12:46:05.509Z,7.50
2023-05-23T12:48:33.547Z,5.80
2023-05-23T12:51:01.451Z,5.40
2023-05-23T12:53:28.013Z,5.15
2023-05-23T12:55:54.510Z,4.60
2023-05-23T12:58:21.019Z,4.27
2023-05-23T13:00:47.665Z,5.10
2023-05-23T13:03:14.186Z,4.25
2023-05-23T13:05:42.859Z,4.68
2023-05-23T13:08:09.740Z,4.85
2023-05-23T13:10:36.268Z,4.32
2023-05-23T13:13:02.842Z,4.50
2023-05-23T13:15:29.454Z,3.72
2023-05-23T13:17:57.769Z,3.88
2023-05-23T13:20:24.695Z,4.43
2023-05-23T13:22:52.678Z,3.97
2023-05-23T13:25:19.321Z,3.83
2023-05-23T13:27:48.176Z,3.72
2023-05-23T13:30:15.668Z,3.08
2023-05-23T13:32:42.234Z,4.03
2023-05-23T13:35:09.263Z,3.42
2023-05-23T13:40:04.796Z,3.53
2023-05-23T13:42:31.793Z,3.67
2023-05-23T13:44:58.324Z,4.43
2023-05-23T13:47:24.877Z,3.83
2023-05-23T13:49:51.449Z,3.03
2023-05-23T13:52:17.998Z,4.70
2023-05-23T13:54:44.568Z,4.47
2023-05-23T13:57:12.555Z,4.60
2023-05-23T13:59:39.118Z,4.38
2023-05-23T14:02:05.947Z,4.63
2023-05-23T14:04:32.944Z,4.45
2023-05-23T14:06:59.424Z,4.82
2023-05-23T14:09:26.039Z,4.63
2023-05-23T14:11:52.643Z,4.27
2023-05-23T14:14:20.550Z,4.93
2023-05-23T14:16:47.416Z,4.88
2023-05-23T14:19:14.122Z,4.88
2023-05-23T14:21:41.770Z,4.17
2023-05-23T14:24:09.185Z,4.50
2023-05-23T14:26:35.695Z,4.33
2023-05-23T14:29:02.308Z,4.30
2023-05-23T14:31:30.208Z,4.80
2023-05-23T14:33:56.913Z,3.60
2023-05-23T14:36:25.098Z,5.32
2023-05-23T14:38:51.640Z,4.55
2023-05-23T14:41:18.277Z,4.53
2023-05-23T14:43:44.789Z,4.27
2023-05-23T14:46:11.523Z,4.27
2023-05-23T14:48:39.387Z,4.72
2023-05-23T14:51:05.891Z,4.20
2023-05-23T14:53:32.390Z,4.73
2023-05-23T14:55:59.416Z,4.32
2023-05-23T14:58:25.894Z,3.25
2023-05-23T15:00:52.477Z,4.25
2023-05-23T15:03:19.130Z,3.80
2023-05-23T15:05:48.961Z,3.65
2023-05-23T15:08:16.016Z,4.03
2023-05-23T15:10:42.528Z,3.90
2023-05-23T15:13:09.018Z,3.90
2023-05-23T15:15:35.492Z,3.93
2023-05-23T15:18:02.076Z,3.67
2023-05-23T15:20:28.738Z,3.77
2023-05-23T15:22:56.847Z,2.43
2023-05-23T15:25:33.353Z,4.05
2023-05-23T15:28:10.770Z,4.28
2023-05-23T15:30:38.069Z,4.10
2023-05-23T15:33:04.652Z,4.37
2023-05-23T15:35:31.207Z,3.97
2023-05-23T15:37:59.057Z,4.25
2023-05-23T15:40:25.553Z,4.05
2023-05-23T15:42:52.056Z,3.83
2023-05-23T15:45:18.590Z,3.78
2023-05-23T15:47:45.130Z,4.10
2023-05-23T15:50:13.644Z,4.65
2023-05-23T15:52:40.947Z,4.57
2023-05-23T15:55:09.389Z,5.03
2023-05-23T15:57:35.892Z,5.38
2023-05-23T16:00:02.529Z,4.72
2023-05-23T16:02:29.136Z,4.80
2023-05-23T16:04:55.708Z,4.97
2023-05-23T16:07:22.202Z,4.57
2023-05-23T16:09:48.753Z,6.07
2023-05-23T16:12:16.588Z,5.93
2023-05-23T16:14:43.108Z,5.97
2023-05-23T16:17:09.676Z,6.67
2023-05-23T16:19:36.362Z,6.43
2023-05-23T16:22:03.007Z,5.45
2023-05-23T16:24:29.556Z,5.78
2023-05-23T16:26:56.068Z,5.93
2023-05-23T16:29:23.908Z,5.32
2023-05-23T16:31:50.450Z,5.75
2023-05-23T16:34:17.179Z,5.60
2023-05-23T16:36:43.798Z,6.13
2023-05-23T16:39:10.325Z,6.47
2023-05-23T16:41:36.795Z,7.63
2023-05-23T16:44:03.358Z,6.93
2023-05-23T16:46:31.230Z,7.83
2023-05-23T16:48:57.929Z,8.07
2023-05-23T16:51:24.473Z,8.03
2023-05-23T16:53:50.986Z,8.47
2023-05-23T16:56:17.825Z,8.30
2023-05-23T16:58:44.347Z,9.15
2023-05-23T17:01:10.928Z,9.13
2023-05-23T17:03:38.976Z,9.47
2023-05-23T17:06:05.776Z,9.63
2023-05-23T17:08:32.305Z,10.38
2023-05-23T17:10:58.800Z,10.98
2023-05-23T17:13:25.343Z,9.50
2023-05-23T17:15:51.934Z,10.20
2023-05-23T17:18:18.578Z,10.13
2023-05-23T17:20:46.473Z,9.97
2023-05-23T17:23:12.975Z,10.15
2023-05-23T17:25:39.560Z,10.10
2023-05-23T17:28:06.150Z,10.03
2023-05-23T17:30:32.635Z,9.52
2023-05-23T17:32:59.160Z,8.65
2023-05-23T17:35:25.724Z,9.13
2023-05-23T17:37:53.696Z,9.52
2023-05-23T17:40:20.320Z,9.30
2023-05-23T17:42:46.870Z,9.33
2023-05-23T17:45:13.377Z,9.35
2023-05-23T17:47:39.940Z,8.55
2023-05-23T17:50:07.646Z,8.23
2023-05-23T17:52:34.578Z,8.48
2023-05-23T17:55:02.498Z,7.10
2023-05-23T17:57:29.235Z,6.95
2023-05-23T17:59:55.783Z,7.70
2023-05-23T18:02:22.381Z,7.50
2023-05-23T18:04:49.077Z,7.90
2023-05-23T18:07:15.740Z,7.27
2023-05-23T18:09:42.237Z,7.17
2023-05-23T18:12:10.150Z,6.45
2023-05-23T18:14:36.693Z,6.47
2023-05-23T18:17:03.251Z,6.72
2023-05-23T18:19:29.836Z,7.10
2023-05-23T18:21:56.683Z,6.90
2023-05-23T18:24:23.302Z,7.40
2023-05-23T18:26:49.802Z,7.27
2023-05-23T18:29:17.627Z,8.57
2023-05-23T18:31:44.535Z,8.23
2023-05-23T18:34:11.190Z,8.10
2023-05-23T18:36:37.704Z,8.33
2023-05-23T18:39:04.274Z,7.90
2023-05-23T18:41:30.798Z,7.95
2023-05-23T18:43:57.352Z,8.73
2023-05-23T18:46:25.198Z,8.68
2023-05-23T18:48:52.015Z,8.32
2023-05-23T18:51:18.623Z,9.50
2023-05-23T18:53:45.171Z,9.77
2023-05-23T18:56:11.703Z,10.18
2023-05-23T18:58:38.330Z,9.60
2023-05-23T19:01:04.944Z,10.97
2023-05-23T19:03:32.853Z,10.73
2023-05-23T19:05:59.477Z,10.88
2023-05-23T19:08:26.001Z,11.60
2023-05-23T19:10:52.488Z,12.10
2023-05-23T19:13:20.638Z,11.13
2023-05-23T19:15:47.474Z,11.13
2023-05-23T19:18:13.978Z,12.00
2023-05-23T19:20:41.949Z,11.93
2023-05-23T19:23:08.659Z,14.35
2023-05-23T19:25:35.191Z,12.15
2023-05-23T19:28:01.680Z,13.73
2023-05-23T19:30:28.173Z,13.02
2023-05-23T19:32:54.724Z,12.10
2023-05-23T19:35:21.545Z,11.77
2023-05-23T19:37:49.362Z,13.32
2023-05-23T19:40:16.032Z,12.05
2023-05-23T19:42:42.574Z,12.20
2023-05-23T19:45:09.899Z,12.40
2023-05-23T19:47:36.411Z,11.88
2023-05-23T19:50:03.118Z,12.23
2023-05-23T19:52:29.605Z,11.73
2023-05-23T19:54:57.460Z,12.20
2023-05-23T19:57:23.950Z,12.25
2023-05-23T19:59:50.435Z,11.38
2023-05-23T20:02:17.072Z,11.57
2023-05-23T20:04:43.594Z,12.33
2023-05-23T20:07:10.194Z,11.45
2023-05-23T20:09:36.797Z,12.30
2023-05-23T20:12:05.148Z,13.05
2023-05-23T20:14:32.298Z,12.73
2023-05-23T20:16:58.919Z,11.65
2023-05-23T20:19:25.502Z,12.23
2023-05-23T20:21:52.109Z,12.77
2023-05-23T20:24:18.769Z,12.05
2023-05-23T20:26:46.140Z,11.90
2023-05-23T20:29:13.969Z,11.88
2023-05-23T20:31:40.583Z,12.25
2023-05-23T20:34:07.197Z,11.27
2023-05-23T20:36:33.690Z,12.53
2023-05-23T20:39:00.160Z,11.77
2023-05-23T20:41:26.692Z,12.10
2023-05-23T20:43:53.162Z,11.95
2023-05-23T20:46:21.021Z,11.85
2023-05-23T20:48:47.616Z,11.45
2023-05-23T20:51:14.102Z,11.17
2023-05-23T20:53:40.620Z,11.13
2023-05-23T20:56:07.117Z,11.40
2023-05-23T20:58:33.621Z,10.07
2023-05-23T21:01:00.150Z,10.45
2023-05-23T21:03:28.128Z,10.80
2023-05-23T21:05:54.670Z,9.75
2023-05-23T21:08:21.179Z,9.88
2023-05-23T21:10:50.849Z,9.82
2023-05-23T21:13:18.947Z,8.50
2023-05-23T21:15:45.493Z,8.75
2023-05-23T21:18:12.113Z,7.85
2023-05-23T21:20:40.174Z,6.80
2023-05-23T21:23:06.773Z,7.20
2023-05-23T21:25:33.289Z,5.55
2023-05-23T21:27:59.806Z,5.57
2023-05-23T21:30:40.280Z,6.70
2023-05-23T21:33:06.993Z,5.88
2023-05-23T21:35:33.475Z,5.60
2023-05-23T21:38:01.444Z,5.60
2023-05-23T21:40:27.954Z,5.22
2023-05-23T21:42:54.484Z,6.40
2023-05-23T21:45:21.188Z,5.13
2023-05-23T21:47:47.814Z,5.83
2023-05-23T21:50:14.349Z,5.40
2023-05-23T21:52:40.814Z,5.68
2023-05-23T21:55:08.952Z,5.10
2023-05-23T21:57:35.455Z,5.70
2023-05-23T22:00:01.953Z,5.57
2023-05-23T22:02:28.556Z,5.38
2023-05-23T22:04:55.093Z,5.03
2023-05-23T22:07:21.619Z,6.10
2023-05-23T22:09:48.116Z,5.15
2023-05-23T22:12:16.045Z,4.80
2023-05-23T22:14:42.576Z,5.30
2023-05-23T22:17:09.108Z,5.57
2023-05-23T22:19:35.704Z,5.63
2023-05-23T22:22:02.229Z,5.90
2023-05-23T22:24:28.696Z,5.32
2023-05-23T22:26:55.190Z,5.53
2023-05-23T22:29:23.017Z,5.13
2023-05-23T22:31:49.607Z,6.15
2023-05-23T22:34:16.182Z,5.83
2023-05-23T22:36:42.752Z,6.30
2023-05-23T22:39:09.320Z,5.45
2023-05-23T22:41:35.813Z,6.18
2023-05-23T22:44:02.373Z,5.35
2023-05-23T22:46:30.231Z,6.85
2023-05-23T22:48:56.776Z,5.50
2023-05-23T22:51:23.340Z,6.15
2023-05-23T22:53:50.019Z,5.50
2023-05-23T22:56:16.700Z,5.37
2023-05-23T22:58:43.199Z,6.13
2023-05-23T23:01:09.764Z,5.90
2023-05-23T23:03:37.632Z,5.50
2023-05-23T23:06:04.585Z,5.88
2023-05-23T23:08:31.106Z,5.82
2023-05-23T23:10:57.636Z,5.10
2023-05-23T23:13:24.136Z,4.90
2023-05-23T23:15:50.838Z,6.35
2023-05-23T23:18:17.344Z,5.27
2023-05-23T23:20:45.609Z,4.22
2023-05-23T23:23:12.385Z,4.72
2023-05-23T23:25:38.838Z,4.80
2023-05-23T23:28:05.494Z,4.60
2023-05-23T23:30:31.995Z,5.47
2023-05-23T23:32:58.527Z,5.05
2023-05-23T23:35:25.045Z,4.60
2023-05-23T23:37:52.864Z,4.68
2023-05-23T23:40:19.329Z,3.88
2023-05-23T23:42:45.831Z,3.88
2023-05-23T23:45:12.311Z,4.68
2023-05-23T23:47:38.818Z,4.68
2023-05-23T23:50:06.463Z,4.30
2023-05-23T23:52:32.995Z,4.43
2023-05-23T23:55:00.873Z,4.53
2023-05-23T23:57:27.412Z,4.40
2023-05-23T23:59:53.903Z,4.60
